Time;durP1;ratioP1;P1;durP2;ratioP2;P2;SDS_P1;SDS_P2;PMS_P1;PMS_P2;Temp;Humidity;BMP_temperature;BMP_pressure;BME280_temperature;BME280_humidity;BME280_pressure;Samples;Min_cycle;Max_cycle;Signal;HPM_P1;HPM_P2
2024/01/04 00:02:56;;;;;;;4.83;4.30;;;;;;;22.05;35.00;94337.75;6163996;28;109258;-59
2024/01/04 00:06:09;;;;;;;5.50;4.60;;;;;;;22.05;34.48;94330.53;6173643;28;109320;-58
2024/01/04 00:09:21;;;;;;;5.10;4.60;;;;;;;22.04;34.67;94339.63;6152546;28;109719;-58
2024/01/04 00:12:34;;;;;;;5.33;4.83;;;;;;;22.04;34.41;94342.28;6159924;28;109112;-58
2024/01/04 00:15:49;;;;;;;4.50;4.10;;;;;;;22.04;35.04;94328.97;6160433;28;109121;-58
2024/01/04 00:18:57;;;;;;;5.23;4.47;;;;;;;22.07;34.46;94332.88;6159903;28;109107;-58
2024/01/04 00:22:10;;;;;;;6.00;5.17;;;;;;;22.05;34.44;94322.53;6161415;28;109742;-58
2024/01/04 00:25:23;;;;;;;5.30;3.90;;;;;;;22.02;34.35;94315.19;6164182;28;109150;-59
2024/01/04 00:28:38;;;;;;;4.90;4.30;;;;;;;22.05;34.74;94325.19;6165709;28;109213;-58
2024/01/04 00:31:48;;;;;;;4.57;4.17;;;;;;;22.05;34.55;94324.41;6167003;28;110812;-59
2024/01/04 00:34:56;;;;;;;5.27;4.77;;;;;;;22.05;34.64;94338.53;6160644;28;109383;-58
2024/01/04 00:38:08;;;;;;;4.70;4.30;;;;;;;22.05;34.84;94330.53;6161165;28;110480;-59
2024/01/04 00:41:18;;;;;;;4.70;4.30;;;;;;;22.07;34.28;94322.22;6174755;28;109240;-58
2024/01/04 00:44:25;;;;;;;4.40;4.00;;;;;;;22.10;34.13;94326.88;6171281;28;110198;-58
2024/01/04 00:47:36;;;;;;;3.93;3.53;;;;;;;22.08;34.38;94329.88;6160739;28;109838;-58
2024/01/04 00:50:49;;;;;;;4.47;4.07;;;;;;;22.08;34.37;94334.41;6182250;28;109163;-58
2024/01/04 00:54:07;;;;;;;5.03;4.20;;;;;;;22.09;34.76;94341.31;6166380;28;109144;-58
2024/01/04 00:57:23;;;;;;;5.10;4.60;;;;;;;22.07;34.73;94341.63;5936002;28;6737642;-57
2024/01/04 01:00:34;;;;;;;5.20;4.43;;;;;;;22.07;34.48;94346.97;6166270;28;109084;-58
2024/01/04 01:03:38;;;;;;;7.00;4.23;;;;;;;22.06;35.02;94358.72;6178059;28;110990;-59
2024/01/04 01:06:44;;;;;;;4.67;4.13;;;;;;;22.07;34.70;94360.28;6161254;28;110122;-58
2024/01/04 01:09:52;;;;;;;4.43;4.03;;;;;;;22.07;34.46;94359.50;6163818;28;110081;-59
2024/01/04 01:13:00;;;;;;;4.63;4.13;;;;;;;22.06;34.41;94344.63;6165249;28;109900;-58
2024/01/04 01:16:10;;;;;;;4.77;4.27;;;;;;;22.06;34.75;94349.94;6166666;28;110249;-59
2024/01/04 01:19:27;;;;;;;4.80;4.30;;;;;;;22.05;34.31;94341.19;6171169;28;109421;-58
2024/01/04 01:22:42;;;;;;;4.00;3.60;;;;;;;22.05;34.60;94349.19;6159009;28;109148;-58
2024/01/04 01:25:53;;;;;;;4.73;4.00;;;;;;;22.04;34.87;94354.81;6160503;28;109449;-58
2024/01/04 01:29:00;;;;;;;4.33;3.70;;;;;;;22.02;34.61;94347.16;6149576;28;109098;-58
2024/01/04 01:32:14;;;;;;;5.50;4.27;;;;;;;22.03;34.67;94350.59;6177670;28;108850;-59
2024/01/04 01:35:20;;;;;;;4.20;3.80;;;;;;;22.02;34.62;94341.84;6170149;28;109193;-59
2024/01/04 01:38:28;;;;;;;5.53;4.50;;;;;;;22.02;34.76;94352.50;6155535;28;109238;-59
2024/01/04 01:41:45;;;;;;;5.00;4.07;;;;;;;22.01;34.80;94350.94;6168198;28;109226;-58
2024/01/04 01:44:59;;;;;;;5.70;3.93;;;;;;;22.00;34.92;94360.00;6162275;28;109082;-59
2024/01/04 01:48:14;;;;;;;4.60;4.10;;;;;;;22.00;34.35;94352.00;6165151;28;110082;-59
2024/01/04 01:51:28;;;;;;;4.20;3.80;;;;;;;21.99;34.37;94353.09;6162504;28;109889;-59
2024/01/04 01:54:42;;;;;;;4.10;3.70;;;;;;;22.00;34.40;94365.31;6177145;28;109056;-60
2024/01/04 01:57:51;;;;;;;5.30;4.30;;;;;;;21.99;34.28;94363.75;6168564;28;109341;-59
2024/01/04 02:00:59;;;;;;;4.87;4.30;;;;;;;21.99;34.41;94374.41;6166981;28;109100;-58
2024/01/04 02:04:10;;;;;;;5.30;4.07;;;;;;;21.99;34.38;94355.78;6159958;28;109447;-58
2024/01/04 02:07:23;;;;;;;4.30;3.90;;;;;;;22.00;34.57;94361.88;6174788;28;108831;-58
2024/01/04 02:10:32;;;;;;;4.63;4.23;;;;;;;21.99;34.49;94353.09;6161351;28;109986;-58
2024/01/04 02:13:46;;;;;;;4.50;4.10;;;;;;;21.99;34.64;94352.31;6155381;28;111488;-58
2024/01/04 02:16:57;;;;;;;4.60;4.20;;;;;;;22.00;34.40;94352.00;6161122;28;109494;-59
2024/01/04 02:20:11;;;;;;;4.90;4.27;;;;;;;22.01;34.67;94360.78;6164703;28;109434;-60
2024/01/04 02:23:28;;;;;;;4.27;3.80;;;;;;;22.00;34.29;94356.56;6169472;28;109136;-59
2024/01/04 02:26:40;;;;;;;4.27;3.87;;;;;;;21.99;34.31;94358.44;6149874;28;111018;-60
2024/01/04 02:29:54;;;;;;;4.63;4.23;;;;;;;21.99;34.48;94355.78;6183720;28;109371;-60
2024/01/04 02:33:02;;;;;;;4.10;3.70;;;;;;;21.99;34.34;94352.31;6165509;28;109131;-59
2024/01/04 02:36:11;;;;;;;4.70;4.03;;;;;;;21.98;34.54;94335.56;6151415;28;111228;-60
2024/01/04 02:39:30;;;;;;;4.07;3.67;;;;;;;21.97;34.42;94325.22;6177368;28;109335;-60
2024/01/04 02:42:46;;;;;;;3.93;3.53;;;;;;;21.97;34.36;94311.91;6159480;28;109021;-60
2024/01/04 02:45:55;;;;;;;4.30;3.83;;;;;;;21.95;34.11;94304.25;6165978;28;109032;-60
2024/01/04 02:49:04;;;;;;;4.20;3.80;;;;;;;21.96;34.17;94300.47;6156290;28;109206;-59
2024/01/04 02:52:19;;;;;;;5.30;4.20;;;;;;;21.95;34.40;94304.25;6172889;28;109077;-60
2024/01/04 02:55:36;;;;;;;3.93;3.47;;;;;;;21.98;33.99;94298.25;6158857;28;109235;-59
2024/01/04 02:58:45;;;;;;;5.00;4.00;;;;;;;21.97;34.33;94302.03;6160721;28;109586;-60
2024/01/04 03:01:57;;;;;;;4.30;3.70;;;;;;;21.98;34.08;94305.47;6153284;28;109057;-59
2024/01/04 03:05:13;;;;;;;4.33;3.93;;;;;;;21.97;34.23;94299.38;6163213;28;109039;-60
2024/01/04 03:08:27;;;;;;;6.80;3.97;;;;;;;21.99;34.53;94315.03;6163170;28;109165;-59
2024/01/04 03:11:41;;;;;;;4.10;3.70;;;;;;;21.98;34.01;94303.59;6144533;28;109639;-60
2024/01/04 03:14:57;;;;;;;3.70;3.40;;;;;;;21.98;33.92;94287.59;6165136;28;110070;-60
2024/01/04 03:18:11;;;;;;;4.00;3.60;;;;;;;21.97;34.25;94283.38;6163128;28;109173;-60
2024/01/04 03:21:24;;;;;;;4.80;3.70;;;;;;;21.97;34.52;94280.72;6160292;28;109285;-59
2024/01/04 03:24:41;;;;;;;5.40;3.80;;;;;;;21.97;34.38;94274.63;6157503;28;110351;-60
2024/01/04 03:27:55;;;;;;;5.10;4.17;;;;;;;21.95;34.31;94272.28;6184110;28;109289;-59
2024/01/04 03:31:10;;;;;;;4.07;3.67;;;;;;;21.97;34.46;94269.28;6169953;28;111893;-58
2024/01/04 03:34:22;;;;;;;3.77;3.47;;;;;;;21.95;34.37;94293.59;6148800;28;109251;-59
2024/01/04 03:37:32;;;;;;;4.00;3.07;;;;;;;21.94;34.42;94292.03;6167169;28;109151;-58
2024/01/04 03:40:42;;;;;;;4.40;3.90;;;;;;;21.93;34.33;94282.47;6172972;28;109245;-59
2024/01/04 03:44:00;;;;;;;3.87;3.47;;;;;;;21.92;34.46;94280.13;6174030;28;109361;-58
2024/01/04 03:47:14;;;;;;;4.90;4.07;;;;;;;21.93;34.15;94293.13;6169231;28;109069;-58
2024/01/04 03:50:25;;;;;;;3.87;3.43;;;;;;;21.93;34.52;94276.38;6178862;28;109063;-59
2024/01/04 03:53:38;;;;;;;3.60;3.30;;;;;;;21.94;34.21;94268.06;6175558;28;109044;-60
2024/01/04 03:56:47;;;;;;;3.97;3.57;;;;;;;21.92;33.78;94272.16;6160471;28;109927;-59
2024/01/04 03:59:59;;;;;;;3.77;3.30;;;;;;;21.93;33.87;94266.50;6162963;28;109047;-59
2024/01/04 04:03:06;;;;;;;4.03;3.40;;;;;;;21.97;34.45;94279.94;6170264;28;109330;-58
2024/01/04 04:06:24;;;;;;;3.37;3.07;;;;;;;22.02;33.82;94275.22;6170496;28;110192;-58
2024/01/04 04:09:37;;;;;;;3.83;3.23;;;;;;;22.04;34.00;94273.00;6167847;28;111489;-60
2024/01/04 04:12:50;;;;;;;4.20;3.20;;;;;;;22.05;34.41;94261.25;6165290;28;110161;-58
2024/01/04 04:16:05;;;;;;;4.57;3.57;;;;;;;22.09;34.36;94256.81;6181683;28;109095;-58
2024/01/04 04:19:18;;;;;;;4.00;3.07;;;;;;;22.15;34.35;94259.28;6161210;28;109208;-61
2024/01/04 04:22:37;;;;;;;10.63;9.20;;;;;;;22.17;34.35;94257.84;6170740;28;109089;-60
2024/01/04 04:25:51;;;;;;;11.87;9.50;;;;;;;22.16;34.40;94272.28;6166710;28;109304;-60
2024/01/04 04:29:04;;;;;;;14.33;13.03;;;;;;;22.13;34.68;94254.28;6163432;28;109064;-60
2024/01/04 04:32:19;;;;;;;16.90;15.40;;;;;;;22.10;34.28;94257.59;6156401;28;110091;-60
2024/01/04 04:35:28;;;;;;;16.67;15.07;;;;;;;22.08;34.64;94271.25;6167333;28;110095;-60
2024/01/04 04:38:45;;;;;;;16.60;15.07;;;;;;;22.06;34.98;94257.47;6169098;28;109189;-60
2024/01/04 04:41:59;;;;;;;16.47;14.97;;;;;;;22.02;35.05;94261.13;6174249;28;109965;-61
2024/01/04 04:45:08;;;;;;;15.53;14.03;;;;;;;22.03;34.95;94265.34;6162239;28;108838;-60
2024/01/04 04:48:20;;;;;;;14.40;13.00;;;;;;;22.03;35.10;94252.81;6162107;28;110654;-60
2024/01/04 04:51:37;;;;;;;13.10;11.90;;;;;;;22.00;34.83;94256.09;6162469;28;109356;-59
2024/01/04 04:54:53;;;;;;;15.60;14.30;;;;;;;22.00;34.52;94273.97;6152122;28;109191;-60
2024/01/04 04:58:05;;;;;;;13.90;12.60;;;;;;;21.99;34.72;94254.53;6179409;28;109655;-60
2024/01/04 05:01:15;;;;;;;13.70;12.30;;;;;;;21.97;34.85;94262.06;6174030;28;109041;-60
2024/01/04 05:04:24;;;;;;;10.60;9.50;;;;;;;21.39;33.91;94265.50;6171326;28;109035;-60
2024/01/04 05:07:29;;;;;;;9.33;7.40;;;;;;;20.99;33.08;94249.78;6163850;28;109351;-60
2024/01/04 05:10:35;;;;;;;9.80;6.60;;;;;;;21.12;34.13;94272.78;6165291;28;110111;-60
2024/01/04 05:13:45;;;;;;;8.50;6.13;;;;;;;21.69;32.84;94279.63;6172649;28;109568;-60
2024/01/04 05:16:56;;;;;;;9.07;6.90;;;;;;;21.92;33.23;94248.19;6154831;28;109147;-60
2024/01/04 05:20:10;;;;;;;7.30;6.40;;;;;;;21.97;33.13;94304.69;6174992;28;109209;-60
2024/01/04 05:23:23;;;;;;;8.67;5.70;;;;;;;21.89;33.76;94289.56;6186850;28;109236;-60
2024/01/04 05:26:36;;;;;;;7.10;5.90;;;;;;;21.86;33.52;94316.06;6186710;28;109192;-60
2024/01/04 05:29:54;;;;;;;5.90;5.40;;;;;;;21.84;33.35;94303.03;6176618;28;109494;-60
2024/01/04 05:33:10;;;;;;;5.80;5.30;;;;;;;21.83;33.57;94314.81;6185072;28;109494;-60
2024/01/04 05:36:26;;;;;;;6.20;5.43;;;;;;;21.81;33.78;94277.81;6186216;28;109143;-60
2024/01/04 05:39:36;;;;;;;6.90;4.77;;;;;;;21.85;33.62;94303.84;6175327;28;109570;-60
2024/01/04 05:42:47;;;;;;;6.93;4.80;;;;;;;21.85;33.62;94266.56;6163898;28;108926;-61
2024/01/04 05:46:00;;;;;;;4.90;4.40;;;;;;;21.87;33.88;94283.78;6161775;28;109081;-62
2024/01/04 05:49:16;;;;;;;5.60;4.40;;;;;;;21.92;33.27;94261.50;6161579;28;109136;-61
2024/01/04 05:52:34;;;;;;;5.77;4.10;;;;;;;21.93;33.07;94274.50;6150686;28;109371;-61
2024/01/04 05:55:51;;;;;;;6.47;3.73;;;;;;;21.94;33.59;94278.72;6161520;28;109581;-61
2024/01/04 05:59:03;;;;;;;4.67;4.27;;;;;;;21.91;33.60;94276.69;6160190;28;109062;-61
2024/01/04 06:02:16;;;;;;;4.80;4.03;;;;;;;21.93;33.85;94295.00;6151549;28;109521;-62
2024/01/04 06:05:33;;;;;;;4.37;3.63;;;;;;;21.91;33.73;94254.59;6160043;28;109371;-61
2024/01/04 06:08:51;;;;;;;4.50;4.10;;;;;;;21.91;33.48;94274.03;6172037;28;109054;-61
2024/01/04 06:12:05;;;;;;;4.30;3.90;;;;;;;21.91;33.40;94291.91;6169235;28;109846;-61
2024/01/04 06:15:17;;;;;;;4.20;3.80;;;;;;;21.90;33.93;94264.47;6150881;28;109539;-61
2024/01/04 06:18:34;;;;;;;4.30;3.60;;;;;;;21.92;33.88;94285.47;6161318;28;108867;-61
2024/01/04 06:21:48;;;;;;;4.20;3.80;;;;;;;21.94;33.90;94296.56;6161342;28;109027;-62
2024/01/04 06:25:05;;;;;;;4.40;4.00;;;;;;;21.91;33.40;94291.91;6152900;28;109121;-61
2024/01/04 06:28:16;;;;;;;4.23;3.83;;;;;;;21.94;33.75;94296.56;6185245;28;110036;-61
2024/01/04 06:31:33;;;;;;;5.33;4.30;;;;;;;21.90;33.63;94311.66;6185029;28;109383;-61
2024/01/04 06:34:53;;;;;;;4.07;3.67;;;;;;;21.92;33.99;94299.56;6185832;28;109314;-59
2024/01/04 06:38:08;;;;;;;4.30;3.60;;;;;;;21.96;33.45;94284.50;6174195;28;110200;-59
2024/01/04 06:41:21;;;;;;;4.00;3.60;;;;;;;22.01;33.80;94294.97;6176065;28;109254;-61
2024/01/04 06:44:33;;;;;;;5.00;3.57;;;;;;;22.02;33.61;94312.53;6159221;28;109042;-61
2024/01/04 06:47:50;;;;;;;5.03;4.30;;;;;;;22.03;33.53;94282.13;6153661;28;110182;-63
2024/01/04 06:50:58;;;;;;;4.50;4.10;;;;;;;22.03;33.97;94290.09;6159876;28;109285;-61
2024/01/04 06:54:09;;;;;;;4.40;3.93;;;;;;;22.05;33.79;94281.78;6160771;28;109207;-61
2024/01/04 06:57:20;;;;;;;4.73;4.23;;;;;;;22.04;33.99;94281.00;6159942;28;109085;-61
2024/01/04 07:00:29;;;;;;;4.03;3.63;;;;;;;22.08;34.26;94279.25;6150255;28;109211;-60
2024/01/04 07:03:37;;;;;;;4.13;3.73;;;;;;;22.13;34.28;94277.50;6160747;28;109321;-59
2024/01/04 07:06:47;;;;;;;3.90;3.50;;;;;;;22.45;33.22;94276.00;6160552;28;109215;-59
2024/01/04 07:09:54;;;;;;;6.30;3.30;;;;;;;22.50;33.73;94289.91;6160474;28;109021;-59
2024/01/04 07:13:03;;;;;;;4.83;4.00;;;;;;;22.51;33.35;94299.47;6170784;28;110404;-59
2024/01/04 07:16:13;;;;;;;5.83;3.67;;;;;;;22.41;34.18;94294.53;6183916;28;109046;-59
2024/01/04 07:19:23;;;;;;;4.27;3.37;;;;;;;22.33;33.64;94298.03;6184984;28;109062;-59
2024/01/04 07:22:34;;;;;;;4.77;3.90;;;;;;;22.30;34.19;94298.69;6172910;28;110295;-61
2024/01/04 07:25:46;;;;;;;4.20;3.80;;;;;;;22.24;33.95;94292.00;6186966;28;109068;-63
2024/01/04 07:29:04;;;;;;;4.87;4.37;;;;;;;22.24;34.12;94300.00;6188151;28;109044;-60
2024/01/04 07:32:23;;;;;;;4.10;3.40;;;;;;;22.19;34.22;94295.66;6187673;28;109538;-59
2024/01/04 07:35:38;;;;;;;4.13;3.73;;;;;;;22.19;33.85;94287.66;6177242;28;109110;-60
2024/01/04 07:38:48;;;;;;;4.20;3.80;;;;;;;22.18;33.98;94264.78;6188183;28;109029;-60
2024/01/04 07:41:59;;;;;;;4.10;3.70;;;;;;;22.17;34.08;94262.41;6178822;28;109114;-60
2024/01/04 07:45:11;;;;;;;4.57;4.00;;;;;;;22.16;33.79;94255.53;6154211;28;109243;-61
2024/01/04 07:48:24;;;;;;;4.70;3.80;;;;;;;22.15;33.72;94254.75;6162528;28;109061;-60
2024/01/04 07:51:38;;;;;;;4.30;3.90;;;;;;;22.14;33.64;94239.84;6164240;28;109128;-60
2024/01/04 07:54:56;;;;;;;8.83;3.60;;;;;;;22.13;33.83;94246.28;6163896;28;109311;-59
2024/01/04 07:58:18;;;;;;;5.43;4.20;;;;;;;22.14;34.01;94245.19;6153083;28;109355;-60
2024/01/04 08:01:34;;;;;;;5.57;4.23;;;;;;;22.11;34.00;94243.97;6162598;28;109051;-60
2024/01/04 08:04:50;;;;;;;3.87;3.57;;;;;;;22.19;33.94;94246.91;6162752;28;109107;-60
2024/01/04 08:07:58;;;;;;;4.50;4.10;;;;;;;22.19;34.14;94229.03;6153980;28;109122;-61
2024/01/04 08:11:19;;;;;;;5.10;4.60;;;;;;;22.20;33.97;94217.25;6163125;28;109036;-60
2024/01/04 08:14:30;;;;;;;5.53;5.00;;;;;;;22.18;33.76;94219.47;6188269;28;109259;-61
2024/01/04 08:17:45;;;;;;;6.20;4.77;;;;;;;22.19;34.06;94230.91;6187997;28;109182;-61
2024/01/04 08:21:01;;;;;;;6.23;4.77;;;;;;;22.19;34.25;94233.56;6176916;28;109396;-61
2024/01/04 08:24:20;;;;;;;5.87;5.27;;;;;;;22.16;34.00;94224.31;6162865;28;109044;-61
2024/01/04 08:27:35;;;;;;;5.40;4.90;;;;;;;22.18;34.33;94230.13;6162689;28;110169;-61
2024/01/04 08:30:50;;;;;;;6.23;5.20;;;;;;;22.19;34.28;94239.69;6154523;28;109190;-61
2024/01/04 08:34:01;;;;;;;5.93;4.60;;;;;;;22.20;34.34;94219.16;6162800;28;109765;-77
2024/01/04 08:37:20;;;;;;;5.60;4.73;;;;;;;22.21;34.13;94220.69;6162851;28;109048;-61
2024/01/04 08:40:36;;;;;;;6.50;4.80;;;;;;;22.21;34.45;94226.03;6161857;28;109038;-62
2024/01/04 08:43:52;;;;;;;6.20;5.30;;;;;;;22.22;34.17;94216.94;6152770;28;109045;-61
2024/01/04 08:47:06;;;;;;;7.60;5.10;;;;;;;22.25;34.41;94214.38;6162060;28;109433;-61
2024/01/04 08:50:15;;;;;;;5.37;4.87;;;;;;;22.26;34.00;94205.28;6162124;28;109131;-61
2024/01/04 08:53:23;;;;;;;8.50;5.73;;;;;;;22.28;34.01;94216.38;6156379;28;110366;-62
2024/01/04 08:56:37;;;;;;;7.00;5.17;;;;;;;22.27;33.99;94195.41;6160234;28;109727;-61
2024/01/04 08:59:52;;;;;;;8.60;6.43;;;;;;;22.29;34.19;94206.50;6162840;28;109912;-62
2024/01/04 09:03:02;;;;;;;9.23;6.30;;;;;;;22.28;34.14;94194.28;6161680;28;109193;-62
2024/01/04 09:06:18;;;;;;;7.40;5.50;;;;;;;22.29;34.39;94201.97;6152247;28;109379;-62
2024/01/04 09:09:35;;;;;;;6.80;6.00;;;;;;;22.29;34.05;94209.16;6162296;28;109070;-62
2024/01/04 09:12:48;;;;;;;7.37;6.57;;;;;;;22.30;34.26;94195.53;6161309;28;109660;-62
2024/01/04 09:15:57;;;;;;;6.60;6.00;;;;;;;22.30;34.42;94192.84;6158187;28;109246;-62
2024/01/04 09:19:12;;;;;;;9.10;6.50;;;;;;;22.29;34.04;94179.84;6180832;28;109058;-62
2024/01/04 09:22:29;;;;;;;8.13;6.60;;;;;;;22.28;34.16;94186.28;6179154;28;109378;-62
2024/01/04 09:25:47;;;;;;;6.57;5.87;;;;;;;22.27;34.46;94160.75;6161318;28;109151;-62
2024/01/04 09:29:03;;;;;;;8.53;6.60;;;;;;;22.26;34.31;94169.84;6171143;28;109249;-62
2024/01/04 09:32:16;;;;;;;8.97;7.00;;;;;;;22.26;34.38;94191.97;6186458;28;109062;-62
2024/01/04 09:35:32;;;;;;;8.20;7.40;;;;;;;22.26;34.41;94164.53;6186639;28;109101;-62
2024/01/04 09:38:44;;;;;;;10.50;7.60;;;;;;;22.26;34.10;94167.19;6163900;28;109452;-62
2024/01/04 09:41:59;;;;;;;7.87;7.07;;;;;;;22.25;33.94;94184.28;6158338;28;109066;-61
2024/01/04 09:45:18;;;;;;;9.40;7.80;;;;;;;22.22;33.82;94153.75;6185796;28;109428;-61
2024/01/04 09:48:38;;;;;;;10.90;7.77;;;;;;;22.21;34.49;94125.53;6169843;28;108945;-61
2024/01/04 09:51:54;;;;;;;7.70;7.00;;;;;;;22.24;34.06;94166.75;6150982;28;110534;-61
2024/01/04 09:55:09;;;;;;;6.90;6.20;;;;;;;22.21;34.47;94130.09;6160456;28;109320;-61
2024/01/04 09:58:23;;;;;;;8.83;6.63;;;;;;;22.20;34.82;94120.53;6159138;28;109352;-61
2024/01/04 10:01:38;;;;;;;9.57;7.50;;;;;;;22.21;34.19;94122.09;6160085;28;108998;-62
2024/01/04 10:04:55;;;;;;;7.30;6.63;;;;;;;22.28;34.81;94141.00;6155379;28;109048;-62
2024/01/04 10:08:14;;;;;;;7.30;6.60;;;;;;;22.30;34.68;94122.78;6161702;28;109038;-61
2024/01/04 10:11:39;;;;;;;9.13;6.30;;;;;;;22.34;34.32;94129.00;6160788;28;109264;-61
2024/01/04 10:14:55;;;;;;;10.60;6.40;;;;;;;22.35;34.55;94114.59;6150100;28;109229;-62
2024/01/04 10:18:13;;;;;;;8.27;6.00;;;;;;;22.37;34.17;94110.47;6161454;28;109428;-61
2024/01/04 10:21:24;;;;;;;7.00;5.83;;;;;;;22.38;34.19;94103.28;6161342;28;109246;-61
2024/01/04 10:24:38;;;;;;;6.77;6.17;;;;;;;22.39;34.62;94078.94;6179625;28;110068;-62
2024/01/04 10:27:59;;;;;;;7.13;6.00;;;;;;;22.41;34.25;94067.94;6178785;28;110205;-61
2024/01/04 10:31:09;;;;;;;7.53;5.93;;;;;;;22.42;34.08;94054.28;6149303;28;110162;-61
2024/01/04 10:34:25;;;;;;;9.20;5.80;;;;;;;22.45;34.24;94050.19;6185520;28;109199;-64
2024/01/04 10:37:33;;;;;;;7.23;5.60;;;;;;;22.46;34.43;94042.94;6173320;28;110530;-64
2024/01/04 10:40:46;;;;;;;7.07;5.97;;;;;;;22.42;34.53;94021.53;6165175;28;109378;-65
2024/01/04 10:44:16;;;;;;;7.67;6.77;;;;;;;22.47;34.12;94028.50;6181991;28;108893;-65
2024/01/04 10:47:31;;;;;;;9.97;8.97;;;;;;;22.50;34.38;94039.28;6179487;28;109034;-64
2024/01/04 10:50:49;;;;;;;11.13;8.90;;;;;;;22.48;34.64;94012.19;6180027;28;109001;-65
2024/01/04 10:54:02;;;;;;;8.73;7.93;;;;;;;22.48;34.48;93995.41;6184024;28;109130;-65
2024/01/04 10:57:18;;;;;;;8.60;7.70;;;;;;;22.47;34.43;94010.63;6183900;28;109156;-64
2024/01/04 11:00:35;;;;;;;8.17;7.40;;;;;;;22.45;34.24;93994.19;6177348;28;109412;-64
2024/01/04 11:03:54;;;;;;;8.60;7.20;;;;;;;22.48;34.34;94000.75;6188617;28;108998;-65
2024/01/04 11:07:11;;;;;;;12.13;8.27;;;;;;;22.48;34.07;94009.50;6189279;28;109067;-65
2024/01/04 11:10:24;;;;;;;7.90;6.60;;;;;;;22.50;34.55;94022.50;6184911;28;109821;-65
2024/01/04 11:13:39;;;;;;;11.50;7.10;;;;;;;22.49;33.95;94005.72;6186020;28;109259;-65
2024/01/04 11:17:14;;;;;;;11.57;7.50;;;;;;;22.50;34.31;93998.50;6188532;28;111442;-64
2024/01/04 11:20:47;;;;;;;10.30;6.50;;;;;;;22.51;34.40;93958.19;6187620;28;109260;-65
2024/01/04 11:24:06;;;;;;;8.50;6.40;;;;;;;22.53;34.44;93956.00;6177178;28;109004;-64
2024/01/04 11:27:21;;;;;;;8.70;6.27;;;;;;;22.51;33.83;93952.84;6189231;28;109016;-64
2024/01/04 11:30:37;;;;;;;6.90;6.20;;;;;;;22.53;33.88;93939.22;6188450;28;109253;-66
2024/01/04 11:33:55;;;;;;;6.83;5.87;;;;;;;22.51;34.37;93947.53;6178677;28;109019;-64
2024/01/04 11:37:20;;;;;;;9.93;7.00;;;;;;;22.52;33.91;93953.66;6187208;28;109437;-65
2024/01/04 11:40:37;;;;;;;8.37;6.70;;;;;;;22.51;34.33;93938.75;6188765;28;109061;-64
2024/01/04 11:43:54;;;;;;;11.43;6.20;;;;;;;22.51;34.23;93949.41;6171652;28;109165;-65
2024/01/04 11:47:18;;;;;;;7.53;5.50;;;;;;;22.52;33.93;93941.09;6152821;28;109578;-64
2024/01/04 11:50:30;;;;;;;6.17;5.57;;;;;;;22.50;33.88;93924.66;6164240;28;109429;-65
2024/01/04 11:53:42;;;;;;;8.30;6.07;;;;;;;22.51;34.40;93915.53;6163976;28;109058;-64
2024/01/04 11:56:55;;;;;;;7.17;5.13;;;;;;;22.52;34.35;93911.00;6152608;28;109020;-64
2024/01/04 12:00:16;;;;;;;5.83;5.27;;;;;;;22.52;33.96;93898.44;6164613;28;109032;-66
2024/01/04 12:03:33;;;;;;;6.80;5.00;;;;;;;22.53;33.71;93881.34;6164108;28;109048;-65
2024/01/04 12:06:47;;;;;;;6.23;4.70;;;;;;;22.52;33.95;93874.47;6164007;28;109163;-64
2024/01/04 12:10:02;;;;;;;6.27;4.80;;;;;;;22.53;34.05;93870.69;6151560;28;109067;-64
2024/01/04 12:13:17;;;;;;;6.27;5.40;;;;;;;22.54;33.77;93868.78;6163831;28;108889;-64
2024/01/04 12:16:33;;;;;;;6.50;5.27;;;;;;;22.55;34.10;93862.34;6163853;28;109091;-65
2024/01/04 12:19:49;;;;;;;5.30;4.80;;;;;;;22.53;34.17;93857.34;6154241;28;108976;-64
2024/01/04 12:23:04;;;;;;;6.30;5.07;;;;;;;22.52;34.17;93860.34;6163901;28;108751;-65
2024/01/04 12:26:13;;;;;;;6.07;4.83;;;;;;;22.52;33.92;93865.69;6162679;28;109095;-64
2024/01/04 12:29:25;;;;;;;11.03;5.43;;;;;;;22.49;33.95;93864.44;6163372;28;110270;-64
2024/01/04 12:32:43;;;;;;;4.50;4.10;;;;;;;22.49;34.46;93853.78;6157676;28;109260;-65
2024/01/04 12:36:06;;;;;;;5.80;4.73;;;;;;;22.48;33.82;93864.78;6187493;28;109297;-66
2024/01/04 12:39:29;;;;;;;4.90;4.40;;;;;;;22.47;34.12;93882.66;6181485;28;109059;-66
2024/01/04 12:42:43;;;;;;;6.10;4.40;;;;;;;22.46;33.77;93891.00;6156658;28;109352;-64
2024/01/04 12:46:05;;;;;;;6.37;4.30;;;;;;;22.45;34.10;93874.22;6186944;28;109215;-64
2024/01/04 12:49:16;;;;;;;5.40;4.20;;;;;;;22.41;34.09;93894.69;6170918;28;110553;-64
2024/01/04 12:52:37;;;;;;;6.00;4.60;;;;;;;22.59;34.34;93908.56;6162631;28;109595;-63
2024/01/04 12:55:50;;;;;;;5.63;4.60;;;;;;;22.67;34.01;93895.09;6151559;28;109260;-62
2024/01/04 12:59:01;;;;;;;4.63;4.20;;;;;;;22.73;33.66;93902.88;6162436;28;109676;-61
2024/01/04 13:02:10;;;;;;;4.80;3.83;;;;;;;22.69;34.22;93913.44;6162801;28;109216;-62
2024/01/04 13:05:24;;;;;;;6.80;4.07;;;;;;;22.59;34.18;93922.69;6154824;28;109015;-63
2024/01/04 13:08:31;;;;;;;5.07;4.33;;;;;;;22.50;34.13;93919.31;6162275;28;109425;-62
2024/01/04 13:11:44;;;;;;;4.07;3.67;;;;;;;22.46;34.76;93920.31;6186358;28;109207;-62
2024/01/04 13:15:00;;;;;;;6.60;4.10;;;;;;;22.42;34.34;93914.91;6165156;28;109488;-61
2024/01/04 13:18:10;;;;;;;4.37;3.47;;;;;;;22.39;34.33;93902.25;6157693;28;109098;-64
2024/01/04 13:21:29;;;;;;;4.73;4.00;;;;;;;22.38;34.62;93892.69;6185121;28;109311;-62
2024/01/04 13:24:44;;;;;;;5.93;3.80;;;;;;;22.36;34.18;93884.25;6187052;28;108914;-64
2024/01/04 13:27:57;;;;;;;4.00;3.47;;;;;;;22.35;34.69;93877.38;6180750;28;109234;-65
2024/01/04 13:31:06;;;;;;;5.50;3.57;;;;;;;22.33;34.67;93880.34;6184850;28;109309;-68
2024/01/04 13:34:25;;;;;;;5.60;3.80;;;;;;;22.33;34.58;93875.03;6185236;28;108982;-65
2024/01/04 13:37:35;;;;;;;4.10;3.40;;;;;;;22.35;34.56;93875.50;6186030;28;110576;-64
2024/01/04 13:40:47;;;;;;;4.83;3.00;;;;;;;22.33;34.59;93877.69;6175281;28;109322;-65
2024/01/04 13:44:00;;;;;;;5.67;3.53;;;;;;;22.32;34.29;93902.78;6175082;28;109124;-65
2024/01/04 13:47:16;;;;;;;5.30;3.23;;;;;;;22.36;34.29;93919.69;6160587;28;109159;-64
2024/01/04 13:50:30;;;;;;;4.63;2.90;;;;;;;22.37;34.49;93915.91;6181973;28;109025;-64
2024/01/04 13:53:38;;;;;;;3.97;2.93;;;;;;;22.37;34.33;93931.13;6180506;28;109190;-65
2024/01/04 13:56:57;;;;;;;4.23;3.20;;;;;;;22.37;34.35;93931.13;6184777;28;109105;-65
2024/01/04 14:00:14;;;;;;;13.80;4.10;;;;;;;22.36;34.97;93949.00;6186103;28;108824;-65
2024/01/04 14:03:29;;;;;;;13.03;4.87;;;;;;;22.37;34.55;94105.16;6173907;28;108802;-60
2024/01/04 14:06:46;;;;;;;18.93;4.97;;;;;;;22.36;34.65;94116.16;6186198;28;109522;-61
2024/01/04 14:10:00;;;;;;;24.90;5.60;;;;;;;22.32;35.03;94148.00;6176715;28;109593;-61
2024/01/04 14:13:16;;;;;;;27.00;6.60;;;;;;;22.29;34.83;94169.19;6161177;28;111464;-60
2024/01/04 14:16:36;;;;;;;13.67;4.90;;;;;;;22.29;35.03;94201.97;6155186;28;111786;-61
2024/01/04 14:19:51;;;;;;;10.00;3.90;;;;;;;22.28;34.72;94192.41;6176618;28;109383;-61
2024/01/04 14:23:07;;;;;;;19.27;5.03;;;;;;;22.30;34.66;94214.19;6183034;28;109075;-60
2024/01/04 14:26:19;;;;;;;19.00;4.97;;;;;;;22.28;34.51;94218.28;6150429;28;109173;-61
2024/01/04 14:29:31;;;;;;;13.90;4.33;;;;;;;22.28;35.02;94213.72;6173697;28;109083;-61
2024/01/04 14:32:50;;;;;;;11.40;4.33;;;;;;;22.29;34.74;94214.50;6184259;28;109587;-61
2024/01/04 14:36:02;;;;;;;9.70;3.97;;;;;;;22.29;35.17;94214.50;6172844;28;109569;-61
2024/01/04 14:39:21;;;;;;;8.90;4.23;;;;;;;22.29;35.23;94195.84;6162258;28;109228;-61
2024/01/04 14:42:31;;;;;;;7.30;3.20;;;;;;;22.29;34.97;94201.19;6185089;28;109383;-61
2024/01/04 14:45:44;;;;;;;10.83;4.00;;;;;;;22.27;34.67;94174.84;6160878;28;109055;-61
2024/01/04 14:48:58;;;;;;;8.80;4.03;;;;;;;22.25;34.77;94146.97;6149350;28;109714;-60
2024/01/04 14:52:13;;;;;;;6.00;2.80;;;;;;;22.28;34.54;94170.31;6158874;28;109172;-61
2024/01/04 14:55:25;;;;;;;6.53;3.03;;;;;;;22.24;34.91;94167.53;6160351;28;109464;-61
2024/01/04 14:58:42;;;;;;;6.13;3.00;;;;;;;22.26;35.04;94177.84;6159438;28;110156;-60
2024/01/04 15:01:56;;;;;;;8.97;3.10;;;;;;;22.26;34.79;94188.50;6151175;28;109215;-61